sensor_id;sensor_type;location;lat;lon;timestamp;pressure;altitude;pressure_sealevel;temperature
24278;BMP280;12394;42.692;23.314;2023-07-31T00:01:18;94676.31;;;21.71
24278;BMP280;12394;42.692;23.314;2023-07-31T00:03:45;94690.78;;;21.85
24278;BMP280;12394;42.692;23.314;2023-07-31T00:06:10;94692.72;;;21.85
24278;BMP280;12394;42.692;23.314;2023-07-31T00:08:36;94683.00;;;21.82
24278;BMP280;12394;42.692;23.314;2023-07-31T00:11:01;94693.44;;;21.85
24278;BMP280;12394;42.692;23.314;2023-07-31T00:13:26;94693.91;;;21.84
24278;BMP280;12394;42.692;23.314;2023-07-31T00:15:52;94681.38;;;21.69
24278;BMP280;12394;42.692;23.314;2023-07-31T00:18:17;94698.09;;;21.70
24278;BMP280;12394;42.692;23.314;2023-07-31T00:20:43;94686.25;;;21.71
24278;BMP280;12394;42.692;23.314;2023-07-31T00:23:08;94689.81;;;21.68
24278;BMP280;12394;42.692;23.314;2023-07-31T00:25:33;94683.84;;;21.73
24278;BMP280;12394;42.692;23.314;2023-07-31T00:27:59;94677.88;;;21.78
24278;BMP280;12394;42.692;23.314;2023-07-31T00:30:24;94676.88;;;21.76
24278;BMP280;12394;42.692;23.314;2023-07-31T00:32:50;94659.63;;;21.71
24278;BMP280;12394;42.692;23.314;2023-07-31T00:35:16;94657.34;;;21.64
24278;BMP280;12394;42.692;23.314;2023-07-31T00:37:41;94652.22;;;21.60
24278;BMP280;12394;42.692;23.314;2023-07-31T00:40:07;94644.16;;;21.55
24278;BMP280;12394;42.692;23.314;2023-07-31T00:42:33;94648.34;;;21.61
24278;BMP280;12394;42.692;23.314;2023-07-31T00:44:58;94655.69;;;21.66
24278;BMP280;12394;42.692;23.314;2023-07-31T00:47:24;94663.00;;;21.71
24278;BMP280;12394;42.692;23.314;2023-07-31T00:49:49;94649.88;;;21.68
24278;BMP280;12394;42.692;23.314;2023-07-31T00:52:15;94660.41;;;21.57
24278;BMP280;12394;42.692;23.314;2023-07-31T00:54:40;94660.16;;;21.40
24278;BMP280;12394;42.692;23.314;2023-07-31T00:57:06;94660.88;;;21.41
24278;BMP280;12394;42.692;23.314;2023-07-31T00:59:33;94649.44;;;21.35
24278;BMP280;12394;42.692;23.314;2023-07-31T01:01:59;94621.66;;;21.06
24278;BMP280;12394;42.692;23.314;2023-07-31T01:04:25;94645.13;;;21.22
24278;BMP280;12394;42.692;23.314;2023-07-31T01:07:27;94649.47;;;21.20
24278;BMP280;12394;42.692;23.314;2023-07-31T01:10:15;94644.69;;;21.24
24278;BMP280;12394;42.692;23.314;2023-07-31T01:12:41;94653.28;;;21.34
24278;BMP280;12394;42.692;23.314;2023-07-31T01:15:10;94635.78;;;21.27
24278;BMP280;12394;42.692;23.314;2023-07-31T01:17:39;94645.97;;;21.28
24278;BMP280;12394;42.692;23.314;2023-07-31T01:20:12;94632.19;;;21.30
24278;BMP280;12394;42.692;23.314;2023-07-31T01:31:00;94630.31;;;21.16
24278;BMP280;12394;42.692;23.314;2023-07-31T01:33:28;94625.72;;;21.16
24278;BMP280;12394;42.692;23.314;2023-07-31T01:35:54;94625.22;;;21.03
24278;BMP280;12394;42.692;23.314;2023-07-31T01:38:22;94632.69;;;21.14
24278;BMP280;12394;42.692;23.314;2023-07-31T01:40:51;94635.06;;;21.12
24278;BMP280;12394;42.692;23.314;2023-07-31T01:43:19;94633.50;;;21.05
24278;BMP280;12394;42.692;23.314;2023-07-31T01:45:44;94632.31;;;21.06
24278;BMP280;12394;42.692;23.314;2023-07-31T01:48:10;94631.56;;;21.06
24278;BMP280;12394;42.692;23.314;2023-07-31T01:50:35;94610.03;;;20.89
24278;BMP280;12394;42.692;23.314;2023-07-31T01:53:01;94632.13;;;20.95
24278;BMP280;12394;42.692;23.314;2023-07-31T01:55:26;94641.03;;;20.92
24278;BMP280;12394;42.692;23.314;2023-07-31T01:57:51;94646.06;;;20.90
24278;BMP280;12394;42.692;23.314;2023-07-31T02:00:17;94638.72;;;20.85
24278;BMP280;12394;42.692;23.314;2023-07-31T02:02:43;94640.84;;;20.81
24278;BMP280;12394;42.692;23.314;2023-07-31T02:05:09;94638.56;;;20.74
24278;BMP280;12394;42.692;23.314;2023-07-31T02:07:34;94644.88;;;20.62
24278;BMP280;12394;42.692;23.314;2023-07-31T02:09:59;94634.69;;;20.60
24278;BMP280;12394;42.692;23.314;2023-07-31T02:12:25;94642.69;;;20.60
24278;BMP280;12394;42.692;23.314;2023-07-31T02:14:50;94641.38;;;20.56
24278;BMP280;12394;42.692;23.314;2023-07-31T02:17:16;94649.06;;;20.54
24278;BMP280;12394;42.692;23.314;2023-07-31T02:19:41;94641.28;;;20.50
24278;BMP280;12394;42.692;23.314;2023-07-31T02:22:06;94658.06;;;20.56
24278;BMP280;12394;42.692;23.314;2023-07-31T02:24:32;94646.41;;;20.54
24278;BMP280;12394;42.692;23.314;2023-07-31T02:26:57;94642.66;;;20.46
24278;BMP280;12394;42.692;23.314;2023-07-31T02:29:23;94652.47;;;20.54
24278;BMP280;12394;42.692;23.314;2023-07-31T02:31:48;94648.44;;;20.59
24278;BMP280;12394;42.692;23.314;2023-07-31T02:34:14;94638.63;;;20.50
24278;BMP280;12394;42.692;23.314;2023-07-31T02:36:39;94650.47;;;20.64
24278;BMP280;12394;42.692;23.314;2023-07-31T02:39:04;94650.00;;;20.65
24278;BMP280;12394;42.692;23.314;2023-07-31T02:41:30;94635.44;;;20.61
24278;BMP280;12394;42.692;23.314;2023-07-31T02:43:55;94652.84;;;20.62
24278;BMP280;12394;42.692;23.314;2023-07-31T02:46:21;94654.88;;;20.67
24278;BMP280;12394;42.692;23.314;2023-07-31T02:48:49;94657.72;;;20.78
24278;BMP280;12394;42.692;23.314;2023-07-31T02:51:15;94666.31;;;20.73
24278;BMP280;12394;42.692;23.314;2023-07-31T02:53:40;94673.84;;;20.74
24278;BMP280;12394;42.692;23.314;2023-07-31T02:56:05;94666.88;;;20.77
24278;BMP280;12394;42.692;23.314;2023-07-31T02:58:31;94653.50;;;20.71
24278;BMP280;12394;42.692;23.314;2023-07-31T03:00:58;94680.19;;;20.92
24278;BMP280;12394;42.692;23.314;2023-07-31T03:03:24;94682.94;;;20.97
24278;BMP280;12394;42.692;23.314;2023-07-31T03:05:49;94677.78;;;21.08
24278;BMP280;12394;42.692;23.314;2023-07-31T03:08:15;94676.88;;;21.11
24278;BMP280;12394;42.692;23.314;2023-07-31T03:10:40;94679.53;;;21.11
24278;BMP280;12394;42.692;23.314;2023-07-31T03:13:06;94683.97;;;21.14
24278;BMP280;12394;42.692;23.314;2023-07-31T03:15:32;94656.88;;;20.86
24278;BMP280;12394;42.692;23.314;2023-07-31T03:17:57;94686.41;;;21.03
24278;BMP280;12394;42.692;23.314;2023-07-31T03:20:23;94662.31;;;20.92
24278;BMP280;12394;42.692;23.314;2023-07-31T03:22:48;94679.81;;;21.13
24278;BMP280;12394;42.692;23.314;2023-07-31T03:25:13;94690.56;;;21.19
24278;BMP280;12394;42.692;23.314;2023-07-31T03:27:39;94694.16;;;21.16
24278;BMP280;12394;42.692;23.314;2023-07-31T03:30:05;94694.16;;;21.16
24278;BMP280;12394;42.692;23.314;2023-07-31T03:32:31;94699.28;;;21.19
24278;BMP280;12394;42.692;23.314;2023-07-31T03:34:57;94695.59;;;21.32
24278;BMP280;12394;42.692;23.314;2023-07-31T03:37:22;94690.25;;;21.32
24278;BMP280;12394;42.692;23.314;2023-07-31T03:39:48;94706.41;;;21.43
24278;BMP280;12394;42.692;23.314;2023-07-31T03:42:13;94698.69;;;21.45
24278;BMP280;12394;42.692;23.314;2023-07-31T03:44:39;94702.81;;;21.46
24278;BMP280;12394;42.692;23.314;2023-07-31T03:47:04;94704.19;;;21.56
24278;BMP280;12394;42.692;23.314;2023-07-31T03:49:30;94706.19;;;21.61
24278;BMP280;12394;42.692;23.314;2023-07-31T03:51:56;94708.69;;;21.50
24278;BMP280;12394;42.692;23.314;2023-07-31T03:54:21;94708.69;;;21.50
24278;BMP280;12394;42.692;23.314;2023-07-31T03:56:46;94703.09;;;21.48
24278;BMP280;12394;42.692;23.314;2023-07-31T03:59:12;94711.63;;;21.52
24278;BMP280;12394;42.692;23.314;2023-07-31T04:01:37;94701.97;;;21.54
24278;BMP280;12394;42.692;23.314;2023-07-31T04:04:03;94711.59;;;21.66
24278;BMP280;12394;42.692;23.314;2023-07-31T04:06:28;94710.66;;;21.69
24278;BMP280;12394;42.692;23.314;2023-07-31T04:08:53;94708.03;;;21.55
24278;BMP280;12394;42.692;23.314;2023-07-31T04:11:19;94722.53;;;21.54
24278;BMP280;12394;42.692;23.314;2023-07-31T04:13:44;94709.75;;;21.58
24278;BMP280;12394;42.692;23.314;2023-07-31T04:16:10;94716.31;;;21.57
24278;BMP280;12394;42.692;23.314;2023-07-31T04:18:35;94719.22;;;21.59
24278;BMP280;12394;42.692;23.314;2023-07-31T04:21:00;94715.38;;;21.60
24278;BMP280;12394;42.692;23.314;2023-07-31T04:23:29;94710.59;;;21.64
24278;BMP280;12394;42.692;23.314;2023-07-31T04:25:55;94727.09;;;21.68
24278;BMP280;12394;42.692;23.314;2023-07-31T04:28:20;94729.75;;;21.68
24278;BMP280;12394;42.692;23.314;2023-07-31T04:30:46;94727.28;;;21.79
24278;BMP280;12394;42.692;23.314;2023-07-31T04:33:11;94726.34;;;21.82
24278;BMP280;12394;42.692;23.314;2023-07-31T04:35:36;94730.56;;;21.89
24278;BMP280;12394;42.692;23.314;2023-07-31T04:38:02;94727.25;;;21.94
24278;BMP280;12394;42.692;23.314;2023-07-31T04:40:27;94725.00;;;22.07
24278;BMP280;12394;42.692;23.314;2023-07-31T04:42:53;94719.69;;;22.07
24278;BMP280;12394;42.692;23.314;2023-07-31T04:45:18;94725.88;;;21.98
24278;BMP280;12394;42.692;23.314;2023-07-31T04:47:43;94717.47;;;22.05
24278;BMP280;12394;42.692;23.314;2023-07-31T04:50:09;94719.69;;;22.07
24278;BMP280;12394;42.692;23.314;2023-07-31T04:52:35;94714.81;;;22.05
24278;BMP280;12394;42.692;23.314;2023-07-31T04:55:00;94704.91;;;21.91
24278;BMP280;12394;42.692;23.314;2023-07-31T04:57:25;94727.50;;;21.96
24278;BMP280;12394;42.692;23.314;2023-07-31T04:59:51;94721.53;;;22.01
24278;BMP280;12394;42.692;23.314;2023-07-31T05:02:17;94729.25;;;21.99
24278;BMP280;12394;42.692;23.314;2023-07-31T05:04:43;94722.59;;;22.09
24278;BMP280;12394;42.692;23.314;2023-07-31T05:07:08;94726.28;;;22.32
24278;BMP280;12394;42.692;23.314;2023-07-31T05:09:34;94703.47;;;22.31
24278;BMP280;12394;42.692;23.314;2023-07-31T05:11:59;94723.59;;;22.52
24278;BMP280;12394;42.692;23.314;2023-07-31T05:14:25;94730.41;;;22.73
24278;BMP280;12394;42.692;23.314;2023-07-31T05:16:51;94718.78;;;22.76
24278;BMP280;12394;42.692;23.314;2023-07-31T05:19:17;94715.56;;;22.92
24278;BMP280;12394;42.692;23.314;2023-07-31T05:21:42;94714.59;;;22.95
24278;BMP280;12394;42.692;23.314;2023-07-31T05:24:07;94715.03;;;23.14
24278;BMP280;12394;42.692;23.314;2023-07-31T05:26:33;94723.88;;;23.26
24278;BMP280;12394;42.692;23.314;2023-07-31T05:28:58;94717.75;;;23.20
24278;BMP280;12394;42.692;23.314;2023-07-31T05:31:24;94726.22;;;23.18
24278;BMP280;12394;42.692;23.314;2023-07-31T05:33:50;94727.28;;;23.32
24278;BMP280;12394;42.692;23.314;2023-07-31T05:36:16;94717.25;;;23.47
24278;BMP280;12394;42.692;23.314;2023-07-31T05:38:42;94705.44;;;23.59
24278;BMP280;12394;42.692;23.314;2023-07-31T05:41:09;94718.88;;;23.76
24278;BMP280;12394;42.692;23.314;2023-07-31T05:43:35;94719.19;;;23.83
24278;BMP280;12394;42.692;23.314;2023-07-31T05:46:00;94711.41;;;23.80
24278;BMP280;12394;42.692;23.314;2023-07-31T05:48:26;94706.81;;;23.86
24278;BMP280;12394;42.692;23.314;2023-07-31T05:50:52;94719.75;;;23.99
24278;BMP280;12394;42.692;23.314;2023-07-31T05:53:17;94719.75;;;23.99
24278;BMP280;12394;42.692;23.314;2023-07-31T05:55:43;94720.53;;;23.68
24278;BMP280;12394;42.692;23.314;2023-07-31T05:58:08;94717.59;;;23.60
24278;BMP280;12394;42.692;23.314;2023-07-31T06:00:33;94722.97;;;23.34
24278;BMP280;12394;42.692;23.314;2023-07-31T06:02:59;94724.75;;;23.17
24278;BMP280;12394;42.692;23.314;2023-07-31T06:05:24;94723.41;;;23.33
24278;BMP280;12394;42.692;23.314;2023-07-31T06:07:51;94731.94;;;23.37
24278;BMP280;12394;42.692;23.314;2023-07-31T06:10:16;94730.59;;;23.47
24278;BMP280;12394;42.692;23.314;2023-07-31T06:12:42;94730.47;;;23.62
24278;BMP280;12394;42.692;23.314;2023-07-31T06:15:07;94731.19;;;23.62
24278;BMP280;12394;42.692;23.314;2023-07-31T06:17:33;94740.94;;;23.65
24278;BMP280;12394;42.692;23.314;2023-07-31T06:19:58;94732.97;;;23.76
24278;BMP280;12394;42.692;23.314;2023-07-31T06:22:24;94732.25;;;23.76
24278;BMP280;12394;42.692;23.314;2023-07-31T06:24:49;94746.38;;;23.82
24278;BMP280;12394;42.692;23.314;2023-07-31T06:27:14;94739.19;;;23.99
24278;BMP280;12394;42.692;23.314;2023-07-31T06:29:40;94739.91;;;24.00
24278;BMP280;12394;42.692;23.314;2023-07-31T06:32:06;94738.44;;;23.93
24278;BMP280;12394;42.692;23.314;2023-07-31T06:34:32;94735.34;;;24.06
24278;BMP280;12394;42.692;23.314;2023-07-31T06:36:57;94740.00;;;24.11
24278;BMP280;12394;42.692;23.314;2023-07-31T06:39:22;94737.31;;;24.11
24278;BMP280;12394;42.692;23.314;2023-07-31T06:41:48;94734.81;;;24.39
24278;BMP280;12394;42.692;23.314;2023-07-31T06:44:14;94729.75;;;24.57
24278;BMP280;12394;42.692;23.314;2023-07-31T06:46:39;94729.78;;;24.68
24278;BMP280;12394;42.692;23.314;2023-07-31T06:49:05;94735.59;;;24.67
24278;BMP280;12394;42.692;23.314;2023-07-31T06:51:30;94745.06;;;24.62
24278;BMP280;12394;42.692;23.314;2023-07-31T06:53:59;94740.97;;;24.61
24278;BMP280;12394;42.692;23.314;2023-07-31T06:56:25;94745.06;;;24.62
24278;BMP280;12394;42.692;23.314;2023-07-31T06:58:51;94739.53;;;24.77
24278;BMP280;12394;42.692;23.314;2023-07-31T07:01:16;94747.38;;;24.92
24278;BMP280;12394;42.692;23.314;2023-07-31T07:03:42;94740.09;;;24.98
24278;BMP280;12394;42.692;23.314;2023-07-31T07:06:07;94740.81;;;24.93
24278;BMP280;12394;42.692;23.314;2023-07-31T07:08:32;94711.31;;;24.76
24278;BMP280;12394;42.692;23.314;2023-07-31T07:10:58;94726.72;;;25.03
24278;BMP280;12394;42.692;23.314;2023-07-31T07:13:23;94729.66;;;25.28
24278;BMP280;12394;42.692;23.314;2023-07-31T07:15:50;94734.53;;;25.51
24278;BMP280;12394;42.692;23.314;2023-07-31T07:18:15;94740.88;;;25.43
24278;BMP280;12394;42.692;23.314;2023-07-31T07:20:46;94742.34;;;25.55
24278;BMP280;12394;42.692;23.314;2023-07-31T07:23:12;94749.38;;;25.41
24278;BMP280;12394;42.692;23.314;2023-07-31T07:25:38;94737.72;;;25.61
24278;BMP280;12394;42.692;23.314;2023-07-31T07:28:03;94733.03;;;25.95
24278;BMP280;12394;42.692;23.314;2023-07-31T07:30:29;94735.59;;;26.39
24278;BMP280;12394;42.692;23.314;2023-07-31T07:32:54;94732.78;;;26.73
24278;BMP280;12394;42.692;23.314;2023-07-31T07:35:19;94724.41;;;26.93
24278;BMP280;12394;42.692;23.314;2023-07-31T07:37:48;94731.75;;;27.22
24278;BMP280;12394;42.692;23.314;2023-07-31T07:40:14;94732.88;;;27.38
24278;BMP280;12394;42.692;23.314;2023-07-31T07:42:39;94740.78;;;27.60
24278;BMP280;12394;42.692;23.314;2023-07-31T07:45:05;94738.50;;;27.94
24278;BMP280;12394;42.692;23.314;2023-07-31T07:47:30;94740.34;;;28.05
24278;BMP280;12394;42.692;23.314;2023-07-31T07:49:56;94749.38;;;28.32
24278;BMP280;12394;42.692;23.314;2023-07-31T07:52:21;94741.34;;;28.69
24278;BMP280;12394;42.692;23.314;2023-07-31T07:54:47;94734.06;;;28.64
24278;BMP280;12394;42.692;23.314;2023-07-31T07:57:12;94736.50;;;29.05
24278;BMP280;12394;42.692;23.314;2023-07-31T07:59:37;94744.53;;;29.24
24278;BMP280;12394;42.692;23.314;2023-07-31T08:02:03;94757.81;;;29.98
24278;BMP280;12394;42.692;23.314;2023-07-31T08:04:28;94736.25;;;30.38
24278;BMP280;12394;42.692;23.314;2023-07-31T08:06:54;94754.09;;;29.88
24278;BMP280;12394;42.692;23.314;2023-07-31T08:09:19;94753.66;;;30.76
24278;BMP280;12394;42.692;23.314;2023-07-31T08:11:45;94732.63;;;31.29
24278;BMP280;12394;42.692;23.314;2023-07-31T08:14:10;94744.94;;;32.29
24278;BMP280;12394;42.692;23.314;2023-07-31T08:16:35;94753.22;;;33.02
24278;BMP280;12394;42.692;23.314;2023-07-31T08:19:01;94747.16;;;33.63
24278;BMP280;12394;42.692;23.314;2023-07-31T08:21:26;94720.13;;;32.89
24278;BMP280;12394;42.692;23.314;2023-07-31T08:23:52;94740.78;;;32.28
24278;BMP280;12394;42.692;23.314;2023-07-31T08:26:18;94747.38;;;31.91
24278;BMP280;12394;42.692;23.314;2023-07-31T08:28:44;94748.38;;;32.29
24278;BMP280;12394;42.692;23.314;2023-07-31T08:31:10;94743.16;;;32.67
24278;BMP280;12394;42.692;23.314;2023-07-31T08:33:36;94736.72;;;32.85
24278;BMP280;12394;42.692;23.314;2023-07-31T08:36:02;94732.06;;;33.01
24278;BMP280;12394;42.692;23.314;2023-07-31T08:38:27;94741.91;;;34.10
24278;BMP280;12394;42.692;23.314;2023-07-31T08:40:54;94740.97;;;34.93
24278;BMP280;12394;42.692;23.314;2023-07-31T08:43:25;94747.59;;;34.60
24278;BMP280;12394;42.692;23.314;2023-07-31T08:45:51;94743.00;;;33.54
24278;BMP280;12394;42.692;23.314;2023-07-31T08:48:17;94739.94;;;33.42
24278;BMP280;12394;42.692;23.314;2023-07-31T08:50:43;94734.19;;;34.69
24278;BMP280;12394;42.692;23.314;2023-07-31T08:53:08;94740.50;;;35.69
24278;BMP280;12394;42.692;23.314;2023-07-31T08:55:35;94743.13;;;36.01
24278;BMP280;12394;42.692;23.314;2023-07-31T08:58:03;94728.28;;;35.78
24278;BMP280;12394;42.692;23.314;2023-07-31T09:00:29;94735.53;;;35.25
24278;BMP280;12394;42.692;23.314;2023-07-31T09:03:03;94734.94;;;35.02
24278;BMP280;12394;42.692;23.314;2023-07-31T09:05:30;94736.22;;;35.83
24278;BMP280;12394;42.692;23.314;2023-07-31T09:07:56;94717.03;;;34.44
24278;BMP280;12394;42.692;23.314;2023-07-31T09:10:23;94724.53;;;36.07
24278;BMP280;12394;42.692;23.314;2023-07-31T09:12:49;94735.47;;;38.41
24278;BMP280;12394;42.692;23.314;2023-07-31T09:15:16;94736.06;;;39.47
24278;BMP280;12394;42.692;23.314;2023-07-31T09:17:41;94697.94;;;38.22
24278;BMP280;12394;42.692;23.314;2023-07-31T09:20:19;94722.66;;;36.52
24278;BMP280;12394;42.692;23.314;2023-07-31T09:22:46;94724.50;;;35.73
24278;BMP280;12394;42.692;23.314;2023-07-31T09:30:17;94713.03;;;39.31
24278;BMP280;12394;42.692;23.314;2023-07-31T09:32:44;94710.34;;;41.48
24278;BMP280;12394;42.692;23.314;2023-07-31T09:35:20;94701.09;;;42.01
24278;BMP280;12394;42.692;23.314;2023-07-31T09:37:51;94699.53;;;42.47
24278;BMP280;12394;42.692;23.314;2023-07-31T09:40:34;94694.16;;;42.74
24278;BMP280;12394;42.692;23.314;2023-07-31T09:43:04;94699.84;;;41.56
24278;BMP280;12394;42.692;23.314;2023-07-31T09:45:34;94698.13;;;41.74
24278;BMP280;12394;42.692;23.314;2023-07-31T09:47:59;94693.75;;;42.93
24278;BMP280;12394;42.692;23.314;2023-07-31T09:50:25;94694.16;;;42.63
24278;BMP280;12394;42.692;23.314;2023-07-31T09:52:51;94662.84;;;43.20
24278;BMP280;12394;42.692;23.314;2023-07-31T09:55:17;94680.38;;;43.13
24278;BMP280;12394;42.692;23.314;2023-07-31T09:57:46;94674.47;;;44.01
24278;BMP280;12394;42.692;23.314;2023-07-31T10:00:13;94682.56;;;42.39
24278;BMP280;12394;42.692;23.314;2023-07-31T10:02:39;94687.97;;;39.25
24278;BMP280;12394;42.692;23.314;2023-07-31T10:05:06;94670.00;;;39.12
24278;BMP280;12394;42.692;23.314;2023-07-31T10:07:36;94683.75;;;40.94
24278;BMP280;12394;42.692;23.314;2023-07-31T10:10:04;94681.31;;;42.16
24278;BMP280;12394;42.692;23.314;2023-07-31T10:12:32;94669.84;;;41.60
24278;BMP280;12394;42.692;23.314;2023-07-31T10:14:59;94678.91;;;42.23
24278;BMP280;12394;42.692;23.314;2023-07-31T10:17:25;94672.53;;;42.32
24278;BMP280;12394;42.692;23.314;2023-07-31T10:19:51;94675.94;;;42.94
24278;BMP280;12394;42.692;23.314;2023-07-31T10:22:19;94668.88;;;43.71
24278;BMP280;12394;42.692;23.314;2023-07-31T10:24:46;94676.16;;;41.86
24278;BMP280;12394;42.692;23.314;2023-07-31T10:27:12;94661.38;;;39.78
24278;BMP280;12394;42.692;23.314;2023-07-31T10:29:38;94676.47;;;40.42
24278;BMP280;12394;42.692;23.314;2023-07-31T10:32:06;94666.31;;;40.90
24278;BMP280;12394;42.692;23.314;2023-07-31T10:34:35;94670.91;;;41.55
24278;BMP280;12394;42.692;23.314;2023-07-31T10:39:55;94658.94;;;41.85
24278;BMP280;12394;42.692;23.314;2023-07-31T10:42:27;94662.31;;;42.46
24278;BMP280;12394;42.692;23.314;2023-07-31T10:44:59;94664.84;;;41.56
24278;BMP280;12394;42.692;23.314;2023-07-31T10:47:25;94656.31;;;40.82
24278;BMP280;12394;42.692;23.314;2023-07-31T10:49:51;94660.59;;;39.87
24278;BMP280;12394;42.692;23.314;2023-07-31T10:52:20;94649.94;;;38.89
24278;BMP280;12394;42.692;23.314;2023-07-31T10:57:58;94638.16;;;36.35
24278;BMP280;12394;42.692;23.314;2023-07-31T11:00:29;94652.56;;;35.59
24278;BMP280;12394;42.692;23.314;2023-07-31T11:03:03;94650.09;;;34.64
24278;BMP280;12394;42.692;23.314;2023-07-31T11:05:54;94648.00;;;33.92
24278;BMP280;12394;42.692;23.314;2023-07-31T11:08:35;94642.94;;;33.96
24278;BMP280;12394;42.692;23.314;2023-07-31T11:13:33;94629.09;;;33.16
24278;BMP280;12394;42.692;23.314;2023-07-31T11:15:59;94621.06;;;32.65
24278;BMP280;12394;42.692;23.314;2023-07-31T11:18:28;94631.75;;;32.27
24278;BMP280;12394;42.692;23.314;2023-07-31T11:20:53;94628.00;;;32.02
24278;BMP280;12394;42.692;23.314;2023-07-31T11:23:20;94612.31;;;32.08
24278;BMP280;12394;42.692;23.314;2023-07-31T11:25:45;94622.38;;;32.28
24278;BMP280;12394;42.692;23.314;2023-07-31T11:28:13;94630.00;;;32.01
24278;BMP280;12394;42.692;23.314;2023-07-31T11:30:39;94626.13;;;31.89
24278;BMP280;12394;42.692;23.314;2023-07-31T11:33:06;94610.56;;;31.54
24278;BMP280;12394;42.692;23.314;2023-07-31T11:35:33;94636.59;;;31.57
24278;BMP280;12394;42.692;23.314;2023-07-31T11:37:59;94607.97;;;31.61
24278;BMP280;12394;42.692;23.314;2023-07-31T11:40:26;94616.59;;;31.88
24278;BMP280;12394;42.692;23.314;2023-07-31T11:42:58;94625.19;;;31.79
24278;BMP280;12394;42.692;23.314;2023-07-31T11:45:25;94617.19;;;31.45
24278;BMP280;12394;42.692;23.314;2023-07-31T11:47:55;94617.44;;;31.55
24278;BMP280;12394;42.692;23.314;2023-07-31T11:50:21;94606.75;;;31.49
24278;BMP280;12394;42.692;23.314;2023-07-31T11:52:48;94614.81;;;31.62
24278;BMP280;12394;42.692;23.314;2023-07-31T11:55:16;94602.06;;;31.21
24278;BMP280;12394;42.692;23.314;2023-07-31T11:57:43;94617.44;;;31.06
24278;BMP280;12394;42.692;23.314;2023-07-31T12:00:11;94618.03;;;31.12
24278;BMP280;12394;42.692;23.314;2023-07-31T12:02:38;94614.94;;;31.28
24278;BMP280;12394;42.692;23.314;2023-07-31T12:05:11;94599.56;;;30.82
24278;BMP280;12394;42.692;23.314;2023-07-31T12:07:45;94613.00;;;30.95
24278;BMP280;12394;42.692;23.314;2023-07-31T12:10:11;94615.47;;;31.06
24278;BMP280;12394;42.692;23.314;2023-07-31T12:13:04;94600.22;;;30.96
24278;BMP280;12394;42.692;23.314;2023-07-31T12:15:34;94609.50;;;30.87
24278;BMP280;12394;42.692;23.314;2023-07-31T12:18:04;94592.38;;;30.64
24278;BMP280;12394;42.692;23.314;2023-07-31T12:20:30;94588.47;;;30.72
24278;BMP280;12394;42.692;23.314;2023-07-31T12:22:56;94591.41;;;30.74
24278;BMP280;12394;42.692;23.314;2023-07-31T12:25:22;94590.38;;;30.85
24278;BMP280;12394;42.692;23.314;2023-07-31T12:27:50;94595.34;;;30.73
24278;BMP280;12394;42.692;23.314;2023-07-31T12:30:31;94590.53;;;30.79
24278;BMP280;12394;42.692;23.314;2023-07-31T12:32:57;94585.00;;;30.85
24278;BMP280;12394;42.692;23.314;2023-07-31T12:35:22;94593.34;;;30.95
24278;BMP280;12394;42.692;23.314;2023-07-31T12:37:48;94601.09;;;31.11
24278;BMP280;12394;42.692;23.314;2023-07-31T12:40:13;94595.94;;;31.21
24278;BMP280;12394;42.692;23.314;2023-07-31T12:42:41;94585.34;;;31.02
24278;BMP280;12394;42.692;23.314;2023-07-31T12:45:06;94587.44;;;30.75
24278;BMP280;12394;42.692;23.314;2023-07-31T12:47:32;94590.63;;;30.53
24278;BMP280;12394;42.692;23.314;2023-07-31T12:49:57;94580.41;;;30.38
24278;BMP280;12394;42.692;23.314;2023-07-31T12:52:23;94588.81;;;30.01
24278;BMP280;12394;42.692;23.314;2023-07-31T12:54:48;94576.25;;;29.64
24278;BMP280;12394;42.692;23.314;2023-07-31T12:57:13;94554.25;;;29.73
24278;BMP280;12394;42.692;23.314;2023-07-31T12:59:39;94575.28;;;30.14
24278;BMP280;12394;42.692;23.314;2023-07-31T13:02:05;94572.59;;;30.35
24278;BMP280;12394;42.692;23.314;2023-07-31T13:04:30;94560.09;;;30.79
24278;BMP280;12394;42.692;23.314;2023-07-31T13:06:55;94557.91;;;30.98
24278;BMP280;12394;42.692;23.314;2023-07-31T13:09:21;94569.78;;;31.16
24278;BMP280;12394;42.692;23.314;2023-07-31T13:11:46;94567.47;;;30.78
24278;BMP280;12394;42.692;23.314;2023-07-31T13:14:12;94560.16;;;30.66
24278;BMP280;12394;42.692;23.314;2023-07-31T13:16:37;94572.22;;;30.65
24278;BMP280;12394;42.692;23.314;2023-07-31T13:19:03;94567.22;;;30.35
24278;BMP280;12394;42.692;23.314;2023-07-31T13:21:29;94564.88;;;30.18
24278;BMP280;12394;42.692;23.314;2023-07-31T13:23:54;94573.44;;;29.96
24278;BMP280;12394;42.692;23.314;2023-07-31T13:26:19;94579.59;;;29.70
24278;BMP280;12394;42.692;23.314;2023-07-31T13:28:45;94577.81;;;29.46
24278;BMP280;12394;42.692;23.314;2023-07-31T13:31:10;94581.66;;;29.51
24278;BMP280;12394;42.692;23.314;2023-07-31T13:33:36;94578.94;;;29.90
24278;BMP280;12394;42.692;23.314;2023-07-31T13:36:02;94565.81;;;30.21
24278;BMP280;12394;42.692;23.314;2023-07-31T13:38:27;94558.06;;;30.51
24278;BMP280;12394;42.692;23.314;2023-07-31T13:40:53;94570.50;;;30.54
24278;BMP280;12394;42.692;23.314;2023-07-31T13:43:18;94573.03;;;30.39
24278;BMP280;12394;42.692;23.314;2023-07-31T13:45:43;94547.94;;;29.84
24278;BMP280;12394;42.692;23.314;2023-07-31T13:48:09;94575.31;;;30.01
24278;BMP280;12394;42.692;23.314;2023-07-31T13:50:34;94587.59;;;29.89
24278;BMP280;12394;42.692;23.314;2023-07-31T13:53:00;94585.91;;;29.73
24278;BMP280;12394;42.692;23.314;2023-07-31T13:55:25;94579.78;;;29.59
24278;BMP280;12394;42.692;23.314;2023-07-31T13:57:50;94552.81;;;29.46
24278;BMP280;12394;42.692;23.314;2023-07-31T14:00:16;94562.25;;;29.66
24278;BMP280;12394;42.692;23.314;2023-07-31T14:02:41;94567.72;;;29.86
24278;BMP280;12394;42.692;23.314;2023-07-31T14:05:07;94572.91;;;29.71
24278;BMP280;12394;42.692;23.314;2023-07-31T14:07:34;94576.03;;;29.62
24278;BMP280;12394;42.692;23.314;2023-07-31T14:10:00;94567.75;;;29.47
24278;BMP280;12394;42.692;23.314;2023-07-31T14:12:25;94574.41;;;29.46
24278;BMP280;12394;42.692;23.314;2023-07-31T14:14:50;94565.25;;;29.36